Time;durP1;ratioP1;P1;durP2;ratioP2;P2;SDS_P1;SDS_P2;PMS_P1;PMS_P2;Temp;Humidity;BMP_temperature;BMP_pressure;BME280_temperature;BME280_humidity;BME280_pressure;Samples;Min_cycle;Max_cycle;Signal;HPM_P1;HPM_P2
2022/09/17 00:00:23;;;;;;;25.90;3.13;;;11.00;10.50;;;;;;5097915;27;20895;-53
2022/09/17 00:02:54;;;;;;;16.50;2.30;;;13.00;9.40;;;;;;5097786;27;20036;-54
2022/09/17 00:05:23;;;;;;;22.60;2.65;;;11.00;15.30;;;;;;5094897;28;20042;-56
2022/09/17 00:07:50;;;;;;;16.00;2.40;;;12.10;32.50;;;;;;5096226;27;20047;-53
2022/09/17 00:10:17;;;;;;;17.60;2.53;;;11.20;50.20;;;;;;5096234;27;20411;-54
2022/09/17 00:12:43;;;;;;;21.30;2.58;;;10.90;69.80;;;;;;5096227;27;20077;-54
2022/09/17 00:15:09;;;;;;;12.07;2.42;;;10.70;75.40;;;;;;5097720;27;21246;-53
2022/09/17 00:17:35;;;;;;;18.23;2.67;;;10.90;80.00;;;;;;5095608;27;20043;-55
2022/09/17 00:20:03;;;;;;;17.02;2.30;;;10.60;89.20;;;;;;5095602;27;20442;-55
2022/09/17 00:22:28;;;;;;;18.08;3.55;;;10.40;90.30;;;;;;5095521;27;20043;-55
2022/09/17 00:24:54;;;;;;;15.05;2.42;;;12.10;95.00;;;;;;5096250;27;20522;-55
2022/09/17 00:27:20;;;;;;;24.95;3.08;;;11.50;96.00;;;;;;5093819;27;20036;-55
2022/09/17 00:29:47;;;;;;;23.00;3.17;;;10.40;96.40;;;;;;5095475;27;20046;-54
2022/09/17 00:32:13;;;;;;;18.85;3.40;;;11.30;97.80;;;;;;5097558;27;20085;-55
2022/09/17 00:34:39;;;;;;;17.10;2.40;;;10.20;98.80;;;;;;5096015;27;20495;-54
2022/09/17 00:37:04;;;;;;;22.27;3.17;;;10.40;99.50;;;;;;5095347;27;20051;-55
2022/09/17 00:39:30;;;;;;;18.98;2.97;;;10.20;99.20;;;;;;5093964;27;20053;-55
2022/09/17 00:41:56;;;;;;;19.42;3.08;;;11.80;99.90;;;;;;5095554;28;20116;-55
2022/09/17 00:44:44;;;;;;;13.80;2.42;;;10.10;99.90;;;;;;5094692;27;20084;-55
2022/09/17 00:47:20;;;;;;;17.52;2.25;;;9.90;99.90;;;;;;5093939;27;20097;-54
2022/09/17 00:49:50;;;;;;;18.60;2.50;;;9.90;99.60;;;;;;5094874;27;20118;-55
2022/09/17 00:52:25;;;;;;;13.93;2.63;;;9.90;99.90;;;;;;5095375;27;20031;-55
2022/09/17 00:55:00;;;;;;;17.77;2.47;;;11.10;99.90;;;;;;5095553;27;20047;-54
2022/09/17 00:57:27;;;;;;;18.80;2.13;;;9.80;99.90;;;;;;5094239;27;20040;-54
2022/09/17 00:59:53;;;;;;;20.85;2.97;;;9.80;99.00;;;;;;5094718;27;20039;-56
2022/09/17 01:02:19;;;;;;;14.00;2.20;;;12.00;98.40;;;;;;5095945;27;20062;-56
2022/09/17 01:04:45;;;;;;;20.88;4.18;;;9.90;95.80;;;;;;5092740;27;20442;-55
2022/09/17 01:07:25;;;;;;;13.65;2.58;;;9.80;93.50;;;;;;5095738;27;20069;-56
2022/09/17 01:10:12;;;;;;;11.70;2.47;;;9.90;92.30;;;;;;5093873;28;20052;-56
2022/09/17 01:13:03;;;;;;;16.40;2.15;;;10.20;90.90;;;;;;5094225;27;20504;-56
2022/09/17 01:15:50;;;;;;;17.02;2.72;;;10.00;84.60;;;;;;5093806;27;20572;-56
2022/09/17 01:18:44;;;;;;;13.48;2.45;;;10.10;80.30;;;;;;5094594;27;20075;-56
2022/09/17 01:21:38;;;;;;;19.13;3.08;;;10.00;75.30;;;;;;5094066;27;20044;-56
2022/09/17 01:24:32;;;;;;;16.85;2.15;;;10.00;71.30;;;;;;5093237;28;20082;-56
2022/09/17 01:27:17;;;;;;;16.00;2.55;;;10.00;73.40;;;;;;5089456;27;20048;-56
2022/09/17 01:29:54;;;;;;;17.30;2.35;;;9.80;74.80;;;;;;5093842;27;20036;-56
2022/09/17 01:32:23;;;;;;;19.95;3.75;;;10.00;77.50;;;;;;5096501;27;20147;-56
2022/09/17 01:35:18;;;;;;;14.80;2.35;;;10.10;76.00;;;;;;5094979;28;20348;-56
2022/09/17 01:38:02;;;;;;;15.73;2.67;;;10.20;76.60;;;;;;5094441;27;20048;-56
2022/09/17 01:40:31;;;;;;;14.27;2.38;;;10.00;76.80;;;;;;5094994;28;20120;-56
2022/09/17 01:43:16;;;;;;;14.68;2.15;;;10.10;77.20;;;;;;5093666;27;20051;-56
2022/09/17 01:45:54;;;;;;;14.43;2.42;;;10.30;76.60;;;;;;5094913;27;20044;-55
2022/09/17 01:48:24;;;;;;;17.10;2.53;;;10.20;75.40;;;;;;5093350;27;20048;-56
2022/09/17 01:51:11;;;;;;;14.05;2.35;;;10.20;72.50;;;;;;5093961;28;20066;-55
2022/09/17 01:53:46;;;;;;;12.82;2.42;;;10.30;65.90;;;;;;5094747;27;20059;-56
2022/09/17 01:56:16;;;;;;;16.23;2.08;;;10.10;61.10;;;;;;5093482;27;20039;-55
2022/09/17 01:58:50;;;;;;;15.30;2.20;;;10.20;56.50;;;;;;5093619;27;20031;-56
2022/09/17 02:01:20;;;;;;;15.48;2.40;;;10.20;54.80;;;;;;5093904;27;20050;-56
2022/09/17 02:03:59;;;;;;;16.85;2.22;;;10.20;46.40;;;;;;5093446;27;20031;-56
2022/09/17 02:06:31;;;;;;;12.00;2.17;;;10.30;47.70;;;;;;5092977;28;25214;-56
2022/09/17 02:09:03;;;;;;;13.20;2.45;;;10.50;50.70;;;;;;5092859;27;20450;-56
2022/09/17 02:11:30;;;;;;;;;;;10.40;48.70;;;;;;5093195;27;20160;-55
2022/09/17 02:14:07;;;;;;;17.35;2.53;;;10.40;46.00;;;;;;5092078;27;19952;-56
2022/09/17 02:16:36;;;;;;;12.48;2.20;;;10.50;48.60;;;;;;5092490;28;20044;-57
2022/09/17 02:19:08;;;;;;;12.52;2.50;;;10.70;38.70;;;;;;5092509;28;20039;-56
2022/09/17 02:21:43;;;;;;;;;;;12.10;45.40;;;;;;5092953;27;20043;-55
2022/09/17 02:24:39;;;;;;;18.88;2.20;;;10.80;57.90;;;;;;5093099;27;19935;-56
2022/09/17 02:27:13;;;;;;;17.65;2.50;;;10.80;72.40;;;;;;5093780;27;20043;-56
2022/09/17 02:29:42;;;;;;;16.70;2.10;;;10.80;66.50;;;;;;5093527;27;20036;-56
2022/09/17 02:32:08;;;;;;;22.58;2.47;;;10.80;70.70;;;;;;5094635;28;20051;-56
2022/09/17 02:34:34;;;;;;;15.48;2.28;;;11.60;74.90;;;;;;5092854;28;20043;-55
2022/09/17 02:37:01;;;;;;;16.15;2.35;;;10.60;76.30;;;;;;5092750;28;20035;-56
2022/09/17 02:39:27;;;;;;;17.17;2.95;;;11.10;79.30;;;;;;5092903;28;20035;-56
2022/09/17 02:42:18;;;;;;;14.13;4.00;;;10.40;79.10;;;;;;5094756;27;20061;-56
2022/09/17 02:44:44;;;;;;;13.38;1.95;;;10.40;79.90;;;;;;5093053;27;20548;-56
2022/09/17 02:47:46;;;;;;;17.23;2.63;;;10.10;80.10;;;;;;5092538;28;20044;-55
2022/09/17 02:50:45;;;;;;;12.75;2.00;;;10.20;81.80;;;;;;5069951;28;20055;-56
2022/09/17 02:53:36;;;;;;;17.70;2.30;;;10.20;79.40;;;;;;5094067;28;20059;-56
2022/09/17 02:56:20;;;;;;;19.17;2.10;;;10.20;81.40;;;;;;5093000;28;20104;-56
2022/09/17 02:58:58;;;;;;;14.02;2.40;;;10.20;80.50;;;;;;5092686;28;20116;-55
2022/09/17 03:01:45;;;;;;;16.67;2.35;;;10.10;85.20;;;;;;5093551;28;20044;-55
2022/09/17 03:04:15;;;;;;;11.82;2.22;;;10.30;82.10;;;;;;5094532;28;20042;-54
2022/09/17 03:06:44;;;;;;;14.05;2.72;;;10.40;78.90;;;;;;5093657;28;20130;-56
2022/09/17 03:09:10;;;;;;;16.23;2.00;;;10.40;75.50;;;;;;5093327;28;20039;-56
2022/09/17 03:11:36;;;;;;;14.73;2.00;;;10.30;72.30;;;;;;5092376;28;20050;-55
2022/09/17 03:14:01;;;;;;;18.63;2.40;;;11.10;70.70;;;;;;5093530;27;20035;-54
2022/09/17 03:16:27;;;;;;;14.82;2.53;;;12.40;69.90;;;;;;5097825;28;20040;-56
2022/09/17 03:18:53;;;;;;;20.25;2.30;;;10.30;67.00;;;;;;5096404;27;20035;-56
2022/09/17 03:21:18;;;;;;;19.90;2.10;;;11.10;69.00;;;;;;5096541;27;20519;-54
2022/09/17 03:23:45;;;;;;;13.07;2.05;;;10.30;71.80;;;;;;5097060;27;20134;-56
2022/09/17 03:26:11;;;;;;;14.20;2.22;;;12.00;73.00;;;;;;5096823;27;20734;-56
2022/09/17 03:28:37;;;;;;;13.55;2.22;;;11.10;73.50;;;;;;5097251;27;20125;-52
2022/09/17 03:31:04;;;;;;;10.25;1.77;;;11.00;78.90;;;;;;5097037;27;20038;-51
2022/09/17 03:33:30;;;;;;;9.63;1.75;;;10.30;86.00;;;;;;5098687;27;20044;-53
2022/09/17 03:35:56;;;;;;;12.48;2.30;;;10.30;77.60;;;;;;5096232;28;20047;-54
2022/09/17 03:38:22;;;;;;;14.25;1.73;;;10.30;83.40;;;;;;5097705;27;20089;-54
2022/09/17 03:40:58;;;;;;;15.45;2.25;;;10.10;86.70;;;;;;5094666;27;20104;-53
2022/09/17 03:43:24;;;;;;;15.23;2.10;;;10.20;88.50;;;;;;5097085;27;20043;-55
2022/09/17 03:45:49;;;;;;;9.35;1.98;;;10.20;89.80;;;;;;5096045;27;20873;-52
2022/09/17 03:48:16;;;;;;;12.13;1.85;;;10.20;91.00;;;;;;5094916;27;20047;-53
2022/09/17 03:50:42;;;;;;;12.48;1.73;;;10.10;91.90;;;;;;5095337;27;20047;-53
2022/09/17 03:53:08;;;;;;;10.75;1.60;;;10.10;91.00;;;;;;5097387;27;20424;-53
2022/09/17 03:55:36;;;;;;;8.85;1.45;;;9.90;89.70;;;;;;5096751;27;20131;-53
2022/09/17 03:58:02;;;;;;;7.75;1.80;;;10.70;87.80;;;;;;5096145;27;20055;-52
2022/09/17 04:00:28;;;;;;;9.43;2.90;;;9.80;88.60;;;;;;5097691;27;20043;-52
2022/09/17 04:02:54;;;;;;;11.82;1.70;;;10.30;85.90;;;;;;5098370;27;20104;-52
2022/09/17 04:05:19;;;;;;;12.50;2.05;;;11.00;83.90;;;;;;5096218;27;20031;-52
2022/09/17 04:07:45;;;;;;;9.60;1.67;;;11.80;84.50;;;;;;5096079;27;20457;-52
2022/09/17 04:10:11;;;;;;;11.48;2.03;;;10.00;85.10;;;;;;5097533;27;20039;-53
2022/09/17 04:12:37;;;;;;;14.70;2.15;;;10.30;86.40;;;;;;5096585;27;20047;-52
2022/09/17 04:15:03;;;;;;;18.27;2.08;;;11.10;86.60;;;;;;5096216;28;20626;-54
2022/09/17 04:17:29;;;;;;;10.70;1.73;;;10.00;90.50;;;;;;5097106;27;20380;-54
2022/09/17 04:19:55;;;;;;;9.77;1.75;;;9.90;89.90;;;;;;5095584;27;20069;-54
2022/09/17 04:22:20;;;;;;;14.00;1.83;;;10.00;87.10;;;;;;5094475;28;20416;-54
2022/09/17 04:24:46;;;;;;;11.27;1.75;;;11.50;90.10;;;;;;5093769;27;20050;-55
2022/09/17 04:27:12;;;;;;;14.25;1.73;;;9.90;87.80;;;;;;5094157;27;20040;-53
2022/09/17 04:29:37;;;;;;;12.85;2.03;;;9.90;90.60;;;;;;5094821;27;20067;-54
2022/09/17 04:32:03;;;;;;;15.40;2.10;;;9.80;90.20;;;;;;5093405;27;20689;-54
2022/09/17 04:34:30;;;;;;;14.93;1.92;;;9.90;90.40;;;;;;5096506;27;20036;-54
2022/09/17 04:36:56;;;;;;;14.10;1.98;;;10.70;92.00;;;;;;5095234;28;20180;-54
2022/09/17 04:39:22;;;;;;;18.58;1.77;;;11.80;93.20;;;;;;5095486;27;20515;-55
2022/09/17 04:41:48;;;;;;;11.73;1.50;;;9.90;92.70;;;;;;5095574;27;20419;-54
2022/09/17 04:44:13;;;;;;;12.35;1.85;;;9.90;91.90;;;;;;5095045;27;20048;-55
2022/09/17 04:46:39;;;;;;;13.10;2.15;;;10.00;90.30;;;;;;5095074;27;20074;-54
2022/09/17 04:49:04;;;;;;;15.05;2.40;;;9.80;90.80;;;;;;5094779;27;20043;-54
2022/09/17 04:51:30;;;;;;;12.85;2.08;;;10.00;90.80;;;;;;5095004;27;20103;-55
2022/09/17 04:53:56;;;;;;;15.82;2.08;;;9.80;91.30;;;;;;5095069;27;20416;-55
2022/09/17 04:56:22;;;;;;;15.23;2.75;;;9.90;90.90;;;;;;5094557;27;20035;-55
2022/09/17 04:58:47;;;;;;;11.93;1.90;;;9.80;91.20;;;;;;5094229;27;20039;-55
2022/09/17 05:01:13;;;;;;;14.77;1.95;;;7.70;91.30;;;;;;5093862;28;20043;-55
2022/09/17 05:03:39;;;;;;;13.93;2.15;;;9.70;91.30;;;;;;5096360;27;20092;-55
2022/09/17 05:06:05;;;;;;;16.17;2.05;;;9.80;91.40;;;;;;5096096;27;20059;-55
2022/09/17 05:08:31;;;;;;;13.13;2.08;;;9.70;91.80;;;;;;5096771;27;20108;-54
2022/09/17 05:10:57;;;;;;;13.40;2.38;;;9.70;92.30;;;;;;5094962;27;20050;-54
2022/09/17 05:13:22;;;;;;;16.67;2.10;;;9.80;92.30;;;;;;5095678;27;20563;-55
2022/09/17 05:15:48;;;;;;;10.90;2.10;;;9.80;95.50;;;;;;5094424;28;20069;-55
2022/09/17 05:18:14;;;;;;;11.57;2.53;;;9.90;92.10;;;;;;5094582;27;21055;-55
2022/09/17 05:20:40;;;;;;;12.13;2.00;;;9.80;90.70;;;;;;5094687;27;20391;-53
2022/09/17 05:23:05;;;;;;;17.13;2.22;;;9.90;88.70;;;;;;5094516;27;20530;-55
2022/09/17 05:25:31;;;;;;;15.00;2.65;;;12.00;89.30;;;;;;5094533;27;20036;-53
2022/09/17 05:27:57;;;;;;;14.38;2.35;;;10.20;88.00;;;;;;5095206;27;20360;-54
2022/09/17 05:30:23;;;;;;;19.17;2.85;;;9.80;88.50;;;;;;5092920;27;20043;-54
2022/09/17 05:32:59;;;;;;;25.15;3.35;;;11.30;90.00;;;;;;5094559;27;20085;-55
2022/09/17 05:35:25;;;;;;;10.98;1.80;;;10.00;91.20;;;;;;5093090;28;20099;-54
2022/09/17 05:37:50;;;;;;;9.38;0.90;;;11.60;90.20;;;;;;5093968;27;20117;-55
2022/09/17 05:40:16;;;;;;;3.88;0.82;;;10.00;78.50;;;;;;5094351;27;20111;-53
2022/09/17 05:42:42;;;;;;;6.97;0.90;;;9.80;61.10;;;;;;5092718;27;20051;-55
2022/09/17 05:45:08;;;;;;;6.88;1.08;;;9.90;63.20;;;;;;5093744;27;20131;-53
2022/09/17 05:47:34;;;;;;;9.23;1.25;;;10.00;68.10;;;;;;5092619;27;20110;-54
2022/09/17 05:50:00;;;;;;;9.68;1.25;;;10.50;74.30;;;;;;5093402;27;20138;-55
2022/09/17 05:52:27;;;;;;;8.15;1.20;;;9.70;76.00;;;;;;5094254;27;20104;-55
2022/09/17 05:54:53;;;;;;;6.47;1.23;;;10.00;76.20;;;;;;5093258;27;20054;-55
2022/09/17 05:57:19;;;;;;;6.40;1.25;;;11.70;77.60;;;;;;5093203;28;20055;-54
2022/09/17 05:59:45;;;;;;;12.05;1.40;;;10.00;81.10;;;;;;5092053;27;20055;-55
2022/09/17 06:02:12;;;;;;;12.27;1.70;;;9.50;79.20;;;;;;5093753;27;20062;-53
2022/09/17 06:04:38;;;;;;;8.05;1.10;;;9.50;84.30;;;;;;5094555;27;20046;-55
2022/09/17 06:07:08;;;;;;;11.98;1.88;;;11.00;88.10;;;;;;5093178;27;20039;-55
2022/09/17 06:09:36;;;;;;;12.43;1.75;;;9.60;88.80;;;;;;5093555;28;20203;-54
2022/09/17 06:12:03;;;;;;;11.23;1.50;;;10.00;90.80;;;;;;5093444;28;20047;-54
2022/09/17 06:14:29;;;;;;;8.98;1.02;;;9.60;92.60;;;;;;5093165;27;20043;-54
2022/09/17 06:16:55;;;;;;;8.15;1.27;;;9.70;95.60;;;;;;5092387;27;20040;-54
2022/09/17 06:19:21;;;;;;;12.38;1.70;;;10.30;98.40;;;;;;5091830;28;20639;-54
2022/09/17 06:21:49;;;;;;;8.98;1.10;;;9.90;97.00;;;;;;5092875;28;20411;-53
2022/09/17 06:24:15;;;;;;;11.65;1.42;;;10.20;98.20;;;;;;5092752;27;20519;-52
2022/09/17 06:26:41;;;;;;;7.93;1.38;;;11.00;97.00;;;;;;5092266;27;20130;-52
2022/09/17 06:29:06;;;;;;;9.15;1.77;;;9.70;96.90;;;;;;5091722;27;20039;-52
2022/09/17 06:31:32;;;;;;;9.40;1.38;;;9.90;97.10;;;;;;5091882;28;20039;-53
2022/09/17 06:33:58;;;;;;;10.55;1.55;;;10.20;99.80;;;;;;5094037;28;20518;-51
2022/09/17 06:36:24;;;;;;;8.98;1.48;;;10.80;95.20;;;;;;5092040;27;20075;-54
2022/09/17 06:38:49;;;;;;;9.15;1.23;;;11.40;91.90;;;;;;5093960;27;20154;-53
2022/09/17 06:41:15;;;;;;;9.57;1.77;;;12.70;78.30;;;;;;5093559;27;20865;-54
2022/09/17 06:43:41;;;;;;;11.60;1.77;;;13.40;45.30;;;;;;5092399;28;20055;-54
2022/09/17 06:46:09;;;;;;;11.80;1.90;;;13.70;1.00;;;;;;5092906;28;20716;-52
2022/09/17 06:48:36;;;;;;;7.75;1.30;;;13.20;1.00;;;;;;5091928;28;20082;-53
2022/09/17 06:51:04;;;;;;;10.15;2.00;;;12.90;1.00;;;;;;5091731;27;20307;-54
2022/09/17 06:53:30;;;;;;;9.68;1.52;;;12.50;1.00;;;;;;5090694;28;20523;-55
2022/09/17 06:55:58;;;;;;;11.65;1.50;;;12.80;1.00;;;;;;5092424;27;20097;-53
2022/09/17 06:58:25;;;;;;;11.25;1.63;;;11.70;19.10;;;;;;5092613;28;20585;-55
2022/09/17 07:00:51;;;;;;;9.55;1.40;;;11.90;24.30;;;;;;5091291;28;20527;-53
2022/09/17 07:03:17;;;;;;;7.57;1.40;;;11.60;38.80;;;;;;5091947;28;20226;-55
2022/09/17 07:05:44;;;;;;;15.00;1.80;;;11.80;46.30;;;;;;5092643;28;20066;-54
2022/09/17 07:08:10;;;;;;;10.77;1.60;;;11.60;48.00;;;;;;5092085;28;20070;-54
2022/09/17 07:10:36;;;;;;;11.38;1.50;;;11.50;53.90;;;;;;5090937;28;20161;-55
2022/09/17 07:13:03;;;;;;;12.05;1.92;;;11.30;51.40;;;;;;5090999;28;20046;-55
2022/09/17 07:15:29;;;;;;;10.73;1.70;;;11.70;65.80;;;;;;5091826;28;20104;-55
2022/09/17 07:17:55;;;;;;;13.00;1.33;;;12.30;72.30;;;;;;5092640;28;20051;-55
2022/09/17 07:20:20;;;;;;;10.80;1.77;;;13.40;53.50;;;;;;5091299;28;21166;-55
2022/09/17 07:22:55;;;;;;;11.38;1.60;;;13.90;12.30;;;;;;5088489;28;20079;-55
2022/09/17 07:25:22;;;;;;;5.72;1.45;;;14.30;99.90;;;;;;5093192;27;20070;-55
2022/09/17 07:27:47;;;;;;;12.43;1.70;;;14.60;99.90;;;;;;5091090;28;20098;-56
2022/09/17 07:30:14;;;;;;;7.40;2.03;;;14.80;99.90;;;;;;5091897;28;20783;-56
2022/09/17 07:32:40;;;;;;;10.27;1.65;;;16.30;99.90;;;;;;5091224;28;20035;-55
2022/09/17 07:35:06;;;;;;;6.50;1.33;;;14.70;99.90;;;;;;5093878;28;20115;-55
2022/09/17 07:37:32;;;;;;;9.15;1.63;;;14.60;99.90;;;;;;5091270;28;20050;-55
2022/09/17 07:39:58;;;;;;;7.38;1.33;;;14.20;99.90;;;;;;5093372;28;20059;-55
2022/09/17 07:42:24;;;;;;;10.90;1.48;;;14.00;99.90;;;;;;5092900;28;20052;-55
2022/09/17 07:44:50;;;;;;;6.95;1.13;;;14.00;99.90;;;;;;5094198;28;20047;-55
2022/09/17 07:47:16;;;;;;;5.65;1.15;;;14.30;99.90;;;;;;5092540;28;20213;-55
2022/09/17 07:49:41;;;;;;;9.93;1.38;;;14.80;99.90;;;;;;5090659;28;20082;-55
2022/09/17 07:52:07;;;;;;;6.22;1.00;;;15.60;99.90;;;;;;5092364;28;20484;-55
2022/09/17 07:54:35;;;;;;;6.97;1.20;;;15.30;99.90;;;;;;5093401;28;20047;-53
2022/09/17 07:57:01;;;;;;;10.68;1.63;;;14.90;99.90;;;;;;5092670;27;20064;-55
2022/09/17 07:59:27;;;;;;;7.80;1.20;;;14.60;99.90;;;;;;5092575;28;20814;-54
2022/09/17 08:01:53;;;;;;;7.63;1.13;;;14.10;99.90;;;;;;5094066;27;20154;-53
2022/09/17 08:04:19;;;;;;;8.48;1.20;;;13.80;99.90;;;;;;5096960;27;20043;-53
2022/09/17 08:06:47;;;;;;;8.82;1.00;;;13.40;99.90;;;;;;5095065;27;20766;-54
2022/09/17 08:09:14;;;;;;;9.90;1.13;;;15.00;99.90;;;;;;5095934;27;20146;-55
2022/09/17 08:11:40;;;;;;;7.85;1.52;;;12.70;99.90;;;;;;5094744;27;20404;-55
2022/09/17 08:14:10;;;;;;;9.43;2.38;;;13.40;1.00;;;;;;5095606;27;20529;-55
2022/09/17 08:16:36;;;;;;;11.85;1.80;;;12.00;1.00;;;;;;5095118;27;20466;-55
2022/09/17 08:19:02;;;;;;;10.43;1.42;;;11.80;5.50;;;;;;5096651;27;20103;-55
2022/09/17 08:21:27;;;;;;;9.65;1.42;;;11.50;20.20;;;;;;5095822;27;20201;-55
2022/09/17 08:23:53;;;;;;;6.20;1.02;;;11.60;24.20;;;;;;5095287;27;20127;-55
2022/09/17 08:26:21;;;;;;;12.63;1.70;;;11.50;30.70;;;;;;5093465;27;20059;-54
2022/09/17 08:28:53;;;;;;;8.27;1.42;;;12.00;36.70;;;;;;5095168;27;20071;-54
2022/09/17 08:31:20;;;;;;;10.88;1.42;;;12.00;30.30;;;;;;5094977;27;20438;-55
2022/09/17 08:33:46;;;;;;;6.90;1.20;;;12.20;26.50;;;;;;5094770;27;20074;-56
2022/09/17 08:36:14;;;;;;;10.48;1.27;;;12.20;25.30;;;;;;5096468;27;20081;-53
2022/09/17 08:38:40;;;;;;;8.95;1.27;;;12.30;10.40;;;;;;5095746;28;20043;-52
2022/09/17 08:41:09;;;;;;;12.73;2.83;;;12.60;12.80;;;;;;5095361;27;20079;-55
2022/09/17 08:43:58;;;;;;;12.43;1.70;;;12.40;15.60;;;;;;5094707;27;20060;-54
2022/09/17 08:46:30;;;;;;;9.80;1.52;;;13.00;23.10;;;;;;5092153;27;20050;-55
2022/09/17 08:49:25;;;;;;;8.30;1.25;;;12.90;21.80;;;;;;5093348;27;20759;-53
2022/09/17 08:52:29;;;;;;;9.77;1.25;;;13.10;17.80;;;;;;5095263;28;20046;-54
2022/09/17 08:54:58;;;;;;;7.82;1.23;;;12.90;2.80;;;;;;5085372;27;20054;-54
2022/09/17 08:57:55;;;;;;;7.03;1.30;;;12.80;8.10;;;;;;5092004;28;20036;-55
2022/09/17 09:00:22;;;;;;;9.68;1.52;;;12.70;5.50;;;;;;5094533;27;20538;-55
2022/09/17 09:02:51;;;;;;;17.13;1.77;;;13.10;10.00;;;;;;5094868;27;20055;-53
2022/09/17 09:05:26;;;;;;;8.95;1.60;;;12.40;25.50;;;;;;5094412;27;20035;-52
2022/09/17 09:07:59;;;;;;;11.02;1.50;;;12.70;32.30;;;;;;5091178;28;20055;-54
2022/09/17 09:10:36;;;;;;;11.70;1.80;;;13.00;32.90;;;;;;5094083;27;20075;-54
2022/09/17 09:13:03;;;;;;;11.50;2.05;;;13.20;21.20;;;;;;5093817;27;20626;-55
2022/09/17 09:15:48;;;;;;;9.30;1.40;;;13.30;18.50;;;;;;5094713;28;20036;-54
2022/09/17 09:18:19;;;;;;;3.97;1.08;;;13.30;1.00;;;;;;5092409;28;20044;-55
2022/09/17 09:20:52;;;;;;;10.10;1.15;;;13.70;99.40;;;;;;5093704;27;20070;-54
2022/09/17 09:23:19;;;;;;;5.78;0.90;;;13.40;99.90;;;;;;5093606;28;20046;-54
2022/09/17 09:26:16;;;;;;;7.18;0.90;;;13.90;99.90;;;;;;5092253;27;20047;-55
2022/09/17 09:29:01;;;;;;;6.47;1.30;;;14.10;99.90;;;;;;5094581;27;20453;-55
2022/09/17 09:31:39;;;;;;;9.52;1.15;;;14.40;99.90;;;;;;5091565;27;20051;-55
2022/09/17 09:34:06;;;;;;;7.88;1.35;;;14.60;99.90;;;;;;5092813;27;20130;-53
2022/09/17 09:36:32;;;;;;;7.28;1.10;;;13.60;99.90;;;;;;5091405;27;20031;-55
2022/09/17 09:39:03;;;;;;;11.93;1.25;;;13.40;99.90;;;;;;5092077;27;20047;-53
2022/09/17 09:41:39;;;;;;;6.82;1.05;;;13.00;99.90;;;;;;5092141;27;21149;-54
2022/09/17 09:44:10;;;;;;;8.27;1.35;;;12.90;99.90;;;;;;5093385;27;20039;-54
2022/09/17 09:46:51;;;;;;;7.25;1.10;;;12.80;1.00;;;;;;5092309;28;20047;-55
2022/09/17 09:49:45;;;;;;;7.85;1.08;;;13.00;1.00;;;;;;5093767;28;20122;-54
2022/09/17 09:52:36;;;;;;;7.45;1.13;;;13.10;6.60;;;;;;5092472;27;20049;-55
2022/09/17 09:55:26;;;;;;;7.68;1.80;;;13.50;12.50;;;;;;5094366;27;20091;-55
2022/09/17 09:57:57;;;;;;;10.60;1.60;;;13.90;1.00;;;;;;5093790;27;20363;-53
2022/09/17 10:00:27;;;;;;;8.73;1.67;;;14.00;99.90;;;;;;5094152;27;20601;-55
2022/09/17 10:03:19;;;;;;;9.45;1.60;;;15.40;99.90;;;;;;5094970;27;20049;-53
2022/09/17 10:06:15;;;;;;;13.43;1.75;;;13.40;99.90;;;;;;5088582;27;20044;-51
2022/09/17 10:09:01;;;;;;;11.48;1.30;;;13.40;99.90;;;;;;5084207;28;20498;-52
2022/09/17 10:11:29;;;;;;;10.75;1.38;;;13.20;99.90;;;;;;5085593;27;20080;-53
2022/09/17 10:14:25;;;;;;;7.97;1.48;;;13.40;99.90;;;;;;5091760;27;20055;-53
2022/09/17 10:17:20;;;;;;;7.55;1.40;;;13.70;99.90;;;;;;5083338;28;20483;-55
2022/09/17 10:19:58;;;;;;;13.35;1.73;;;14.00;99.90;;;;;;5093504;27;20403;-54
2022/09/17 10:22:34;;;;;;;7.53;1.50;;;14.50;99.90;;;;;;5093639;27;20049;-56
2022/09/17 10:25:02;;;;;;;12.32;1.77;;;14.60;99.90;;;;;;5092247;27;20047;-55
2022/09/17 10:27:29;;;;;;;13.98;2.15;;;14.90;99.90;;;;;;5092873;27;21213;-48
2022/09/17 10:30:07;;;;;;;10.25;1.75;;;15.00;99.90;;;;;;5093623;27;20043;-50
2022/09/17 10:32:32;;;;;;;10.52;1.42;;;15.00;99.90;;;;;;5092305;28;20502;-51
2022/09/17 10:35:15;;;;;;;12.82;1.77;;;14.80;99.90;;;;;;5095488;28;20109;-48
2022/09/17 10:37:46;;;;;;;12.82;1.83;;;15.00;99.90;;;;;;5093650;28;20032;-50
2022/09/17 10:40:33;;;;;;;11.00;2.05;;;15.20;99.90;;;;;;5093135;27;20047;-50
2022/09/17 10:43:10;;;;;;;11.05;1.67;;;15.60;99.90;;;;;;5092646;28;20051;-51
2022/09/17 10:45:39;;;;;;;10.13;1.83;;;15.30;99.90;;;;;;5093881;27;20052;-49
2022/09/17 10:48:13;;;;;;;7.85;1.80;;;14.70;99.90;;;;;;5092452;28;20151;-50
2022/09/17 10:50:39;;;;;;;6.93;1.13;;;14.10;99.90;;;;;;5094608;27;20043;-49
2022/09/17 10:53:14;;;;;;;6.30;0.93;;;13.80;99.90;;;;;;5093327;27;20132;-50
2022/09/17 10:56:05;;;;;;;7.25;1.27;;;13.80;99.90;;;;;;5093110;27;20043;-50
2022/09/17 10:58:59;;;;;;;7.85;1.50;;;13.30;99.90;;;;;;5093288;27;20043;-51
2022/09/17 11:01:46;;;;;;;8.73;1.65;;;13.30;99.90;;;;;;5092849;28;20051;-51
2022/09/17 11:04:39;;;;;;;7.63;1.80;;;13.40;99.90;;;;;;5093511;28;20595;-51
2022/09/17 11:07:14;;;;;;;7.80;1.52;;;13.20;99.90;;;;;;5093074;28;20035;-50
2022/09/17 11:10:03;;;;;;;11.93;2.05;;;14.70;91.60;;;;;;5092253;28;20067;-50
2022/09/17 11:13:13;;;;;;;45.75;19.02;;;13.20;1.00;;;;;;5082780;28;20403;-49
2022/09/17 11:15:42;;;;;;;31.67;9.23;;;13.20;1.00;;;;;;5031618;28;20037;-52
2022/09/17 11:18:30;;;;;;;21.80;5.38;;;13.20;5.20;;;;;;5030972;28;20521;-50
2022/09/17 11:20:59;;;;;;;13.23;2.40;;;13.80;7.50;;;;;;5072095;28;20044;-51
2022/09/17 11:23:50;;;;;;;12.02;2.13;;;14.10;99.90;;;;;;5091894;28;20043;-49
2022/09/17 11:26:33;;;;;;;11.68;3.03;;;14.60;99.90;;;;;;5092390;28;20511;-51
2022/09/17 11:29:10;;;;;;;13.63;2.00;;;14.60;99.90;;;;;;5092901;28;20642;-52
2022/09/17 11:32:01;;;;;;;9.20;1.08;;;14.40;99.90;;;;;;5093883;28;20364;-51
2022/09/17 11:34:34;;;;;;;9.63;1.50;;;13.80;99.90;;;;;;5093005;27;20074;-51
2022/09/17 11:37:34;;;;;;;8.15;2.08;;;14.40;99.90;;;;;;5098557;27;20535;-49
2022/09/17 11:40:23;;;;;;;8.00;1.15;;;13.30;99.90;;;;;;5095103;27;20104;-51
2022/09/17 11:42:55;;;;;;;11.85;1.88;;;13.40;1.00;;;;;;5096438;27;20747;-50
2022/09/17 11:45:34;;;;;;;10.27;1.63;;;13.70;1.00;;;;;;5096090;28;20050;-49
2022/09/17 11:48:12;;;;;;;12.93;1.90;;;13.80;99.90;;;;;;5095255;27;20047;-48
2022/09/17 11:51:26;;;;;;;14.95;2.08;;;14.00;99.90;;;;;;5079889;28;20783;-48
2022/09/17 11:53:59;;;;;;;9.30;1.70;;;14.10;99.90;;;;;;5092044;27;20130;-50
2022/09/17 11:56:46;;;;;;;11.70;1.65;;;13.80;99.90;;;;;;5096045;27;20429;-51
2022/09/17 11:59:27;;;;;;;8.15;1.30;;;16.10;99.90;;;;;;5093354;28;20465;-49
2022/09/17 12:02:01;;;;;;;10.90;1.85;;;14.10;99.90;;;;;;5096802;28;20044;-46
2022/09/17 12:04:44;;;;;;;9.60;2.33;;;14.40;99.90;;;;;;5096264;28;20046;-49
2022/09/17 12:07:29;;;;;;;14.90;2.17;;;14.80;99.90;;;;;;5097310;27;20047;-47
2022/09/17 12:10:10;;;;;;;11.55;1.95;;;14.90;99.90;;;;;;5096877;27;20039;-49
2022/09/17 12:12:42;;;;;;;14.88;2.17;;;14.90;99.90;;;;;;5095485;28;20419;-46
2022/09/17 12:15:18;;;;;;;;;;;15.10;99.90;;;;;;5096562;27;20039;-49
2022/09/17 12:18:01;;;;;;;17.90;2.42;;;15.20;99.90;;;;;;5095027;27;20459;-52
2022/09/17 12:20:29;;;;;;;14.25;3.42;;;15.60;99.90;;;;;;5094969;27;20047;-51
2022/09/17 12:22:57;;;;;;;13.98;1.95;;;15.30;99.90;;;;;;5095174;27;20050;-47
2022/09/17 12:25:27;;;;;;;13.68;2.00;;;15.00;99.90;;;;;;5096638;27;20043;-49
2022/09/17 12:27:59;;;;;;;13.48;3.50;;;14.60;99.90;;;;;;5096607;27;20088;-50
2022/09/17 12:30:37;;;;;;;14.35;2.50;;;14.60;99.90;;;;;;5095444;27;20040;-52
2022/09/17 12:33:05;;;;;;;9.35;1.63;;;14.90;99.90;;;;;;5095792;27;20039;-49
2022/09/17 12:35:52;;;;;;;8.77;1.42;;;15.30;99.90;;;;;;5096731;27;20047;-48
2022/09/17 12:38:18;;;;;;;8.70;1.35;;;15.20;99.90;;;;;;5095577;27;20406;-50
2022/09/17 12:40:55;;;;;;;15.10;1.75;;;15.60;99.90;;;;;;5095635;27;20508;-48
2022/09/17 12:43:30;;;;;;;12.45;1.92;;;15.60;99.90;;;;;;5095309;27;20048;-51
2022/09/17 12:45:58;;;;;;;15.50;2.42;;;15.90;99.90;;;;;;5094234;27;20047;-50
2022/09/17 12:48:41;;;;;;;17.17;2.78;;;15.70;99.90;;;;;;5093988;27;20038;-53
2022/09/17 12:51:24;;;;;;;10.88;2.25;;;15.40;99.90;;;;;;5096794;27;20043;-49
2022/09/17 12:54:07;;;;;;;17.50;2.40;;;15.70;99.90;;;;;;5095289;27;20044;-50
2022/09/17 12:56:51;;;;;;;15.27;2.67;;;15.40;99.90;;;;;;5094841;27;20043;-49
2022/09/17 12:59:19;;;;;;;15.20;2.20;;;15.70;99.90;;;;;;5095741;28;20047;-51
2022/09/17 13:01:56;;;;;;;15.50;2.50;;;15.90;99.90;;;;;;5094746;28;20035;-48
2022/09/17 13:04:42;;;;;;;14.32;2.70;;;15.90;99.90;;;;;;5096756;27;20066;-49
2022/09/17 13:07:11;;;;;;;19.67;2.53;;;15.60;99.90;;;;;;5096116;27;20094;-47
2022/09/17 13:09:37;;;;;;;10.63;1.92;;;15.50;99.90;;;;;;5095730;27;20499;-50